NDU4052 KEGE-KTEX
Flight info
| Callsign | NDU4052 |
|---|---|
| Flight time | 1h 2m |
| Altitude | 16000 |
| Route | BEVVR1 SPRKT ETL |
| Aircraft | C208/L-SDFGR/C |
Departure
| Time | 2026-04-24 00:31 |
|---|---|
| Airport | Eagle County Regional Airport (KEGE) |
Arrival
| Time | 2026-04-24 01:34 |
|---|---|
| Airport | Telluride Regional Airport (KTEX) |
| Time | Latitude | Longitude | Altitude | Speed | Heading |
|---|---|---|---|---|---|
| 2026-04-24 00:24 | 39.64217 | -106.90463 | 6540 ft | 0 kts | 18° |
| 2026-04-24 00:29 | 39.64220 | -106.90459 | 6540 ft | 2 kts | 53° |
| 2026-04-24 00:29 | 39.64229 | -106.90426 | 6541 ft | 7 kts | 66° |
| 2026-04-24 00:29 | 39.64287 | -106.90341 | 6543 ft | 16 kts | 63° |
| 2026-04-24 00:29 | 39.64315 | -106.90199 | 6547 ft | 16 kts | 82° |
| 2026-04-24 00:30 | 39.64330 | -106.90063 | 6551 ft | 15 kts | 81° |
| 2026-04-24 00:30 | 39.64356 | -106.90017 | 6552 ft | 4 kts | 22° |
| 2026-04-24 00:30 | 39.64446 | -106.90032 | 6552 ft | 12 kts | 300° |
| 2026-04-24 00:30 | 39.64425 | -106.90345 | 6542 ft | 73 kts | 262° |
| 2026-04-24 00:31 | 39.64307 | -106.91240 | 6550 ft | 122 kts | 260° |
| 2026-04-24 00:31 | 39.64129 | -106.92342 | 6886 ft | 126 kts | 260° |
| 2026-04-24 00:31 | 39.63519 | -106.93171 | 7278 ft | 132 kts | 220° |
| 2026-04-24 00:31 | 39.62776 | -106.93877 | 7645 ft | 136 kts | 220° |
| 2026-04-24 00:32 | 39.62014 | -106.94616 | 8015 ft | 137 kts | 222° |
| 2026-04-24 00:32 | 39.61252 | -106.95367 | 8389 ft | 136 kts | 224° |
| 2026-04-24 00:32 | 39.60510 | -106.96094 | 8763 ft | 133 kts | 224° |
| 2026-04-24 00:32 | 39.59774 | -106.96823 | 9140 ft | 132 kts | 226° |
| 2026-04-24 00:33 | 39.59038 | -106.97546 | 9509 ft | 133 kts | 224° |
| 2026-04-24 00:33 | 39.58382 | -106.98338 | 9890 ft | 125 kts | 242° |
| 2026-04-24 00:33 | 39.58021 | -106.99331 | 10274 ft | 119 kts | 260° |
| 2026-04-24 00:33 | 39.57960 | -107.00382 | 10646 ft | 118 kts | 275° |
| 2026-04-24 00:34 | 39.57993 | -107.01411 | 11014 ft | 114 kts | 274° |
| 2026-04-24 00:34 | 39.58027 | -107.02439 | 11389 ft | 117 kts | 276° |
| 2026-04-24 00:34 | 39.58062 | -107.03496 | 11774 ft | 119 kts | 276° |
| 2026-04-24 00:34 | 39.58093 | -107.04578 | 12149 ft | 121 kts | 275° |
| 2026-04-24 00:35 | 39.58170 | -107.05651 | 12529 ft | 118 kts | 285° |
| 2026-04-24 00:35 | 39.58494 | -107.06632 | 12910 ft | 119 kts | 301° |
| 2026-04-24 00:35 | 39.59041 | -107.07405 | 13290 ft | 114 kts | 314° |
| 2026-04-24 00:35 | 39.59619 | -107.08114 | 13657 ft | 113 kts | 314° |
| 2026-04-24 00:36 | 39.60186 | -107.08801 | 14026 ft | 113 kts | 313° |
| 2026-04-24 00:36 | 39.60756 | -107.09495 | 14406 ft | 110 kts | 313° |
| 2026-04-24 00:36 | 39.61301 | -107.10164 | 14773 ft | 108 kts | 313° |
| 2026-04-24 00:36 | 39.61863 | -107.10821 | 15148 ft | 112 kts | 319° |
| 2026-04-24 00:37 | 39.62574 | -107.11237 | 15521 ft | 114 kts | 342° |
| 2026-04-24 00:37 | 39.63352 | -107.11250 | 15908 ft | 109 kts | 359° |
| 2026-04-24 00:37 | 39.64153 | -107.11050 | 16036 ft | 131 kts | 1° |
| 2026-04-24 00:37 | 39.65113 | -107.10810 | 16018 ft | 148 kts | 6° |
| 2026-04-24 00:38 | 39.66147 | -107.10509 | 16019 ft | 158 kts | 6° |
| 2026-04-24 00:38 | 39.67269 | -107.10190 | 16020 ft | 171 kts | 7° |
| 2026-04-24 00:38 | 39.68464 | -107.09854 | 16022 ft | 179 kts | 6° |
| 2026-04-24 00:38 | 39.69670 | -107.09526 | 16023 ft | 176 kts | 6° |
| 2026-04-24 00:39 | 39.70876 | -107.09201 | 16018 ft | 176 kts | 2° |
| 2026-04-24 00:39 | 39.72089 | -107.09242 | 16013 ft | 174 kts | 345° |
| 2026-04-24 00:39 | 39.73212 | -107.09761 | 16017 ft | 169 kts | 328° |
| 2026-04-24 00:39 | 39.74142 | -107.10686 | 16015 ft | 165 kts | 313° |
| 2026-04-24 00:40 | 39.74832 | -107.11890 | 16010 ft | 167 kts | 303° |
| 2026-04-24 00:40 | 39.75481 | -107.13152 | 16019 ft | 167 kts | 304° |
| 2026-04-24 00:40 | 39.76128 | -107.14398 | 16014 ft | 166 kts | 304° |
| 2026-04-24 00:40 | 39.76780 | -107.15639 | 16021 ft | 166 kts | 304° |
| 2026-04-24 00:41 | 39.77424 | -107.16870 | 16028 ft | 162 kts | 303° |
| 2026-04-24 00:41 | 39.78051 | -107.18087 | 16026 ft | 162 kts | 304° |
| 2026-04-24 00:41 | 39.78684 | -107.19279 | 16023 ft | 164 kts | 304° |
| 2026-04-24 00:41 | 39.79306 | -107.20488 | 16030 ft | 160 kts | 304° |
| 2026-04-24 00:42 | 39.79946 | -107.21706 | 16025 ft | 164 kts | 304° |
| 2026-04-24 00:42 | 39.80594 | -107.22933 | 16027 ft | 166 kts | 303° |
| 2026-04-24 00:42 | 39.81236 | -107.24174 | 16029 ft | 165 kts | 303° |
| 2026-04-24 00:42 | 39.81903 | -107.25446 | 16024 ft | 174 kts | 303° |
| 2026-04-24 00:43 | 39.82555 | -107.26724 | 16020 ft | 167 kts | 303° |
| 2026-04-24 00:43 | 39.83204 | -107.27989 | 16028 ft | 169 kts | 304° |
| 2026-04-24 00:43 | 39.83859 | -107.29204 | 16031 ft | 162 kts | 305° |
| 2026-04-24 00:43 | 39.84494 | -107.30430 | 16040 ft | 164 kts | 304° |
| 2026-04-24 00:44 | 39.85145 | -107.31662 | 16028 ft | 167 kts | 302° |
| 2026-04-24 00:44 | 39.85756 | -107.32898 | 16021 ft | 159 kts | 306° |
| 2026-04-24 00:44 | 39.86387 | -107.34074 | 16031 ft | 157 kts | 304° |
| 2026-04-24 00:44 | 39.86999 | -107.35241 | 16031 ft | 158 kts | 303° |
| 2026-04-24 00:45 | 39.87604 | -107.36457 | 16020 ft | 163 kts | 302° |
| 2026-04-24 00:45 | 39.88243 | -107.37725 | 16043 ft | 175 kts | 303° |
| 2026-04-24 00:45 | 39.88928 | -107.38974 | 16023 ft | 167 kts | 306° |
| 2026-04-24 00:45 | 39.89608 | -107.40237 | 16010 ft | 174 kts | 304° |
| 2026-04-24 00:46 | 39.90247 | -107.41523 | 16042 ft | 164 kts | 303° |
| 2026-04-24 00:46 | 39.90895 | -107.42794 | 16017 ft | 173 kts | 304° |
| 2026-04-24 00:46 | 39.91566 | -107.44090 | 16001 ft | 171 kts | 301° |
| 2026-04-24 00:46 | 39.92210 | -107.45349 | 16004 ft | 167 kts | 304° |
| 2026-04-24 00:47 | 39.92881 | -107.46606 | 16010 ft | 169 kts | 301° |
| 2026-04-24 00:47 | 39.93503 | -107.47868 | 16000 ft | 167 kts | 298° |
| 2026-04-24 00:47 | 39.93871 | -107.49276 | 16014 ft | 169 kts | 283° |
| 2026-04-24 00:47 | 39.93938 | -107.50779 | 15997 ft | 165 kts | 269° |
| 2026-04-24 00:48 | 39.93628 | -107.52280 | 16000 ft | 181 kts | 253° |
| 2026-04-24 00:48 | 39.92968 | -107.53681 | 15988 ft | 180 kts | 236° |
| 2026-04-24 00:48 | 39.92016 | -107.54736 | 15987 ft | 181 kts | 217° |
| 2026-04-24 00:48 | 39.90819 | -107.55365 | 15990 ft | 187 kts | 204° |
| 2026-04-24 00:49 | 39.89577 | -107.55856 | 15993 ft | 185 kts | 203° |
| 2026-04-24 00:49 | 39.88328 | -107.56326 | 15993 ft | 188 kts | 203° |
| 2026-04-24 00:49 | 39.87075 | -107.56812 | 15991 ft | 188 kts | 204° |
| 2026-04-24 00:49 | 39.85819 | -107.57292 | 15995 ft | 188 kts | 204° |
| 2026-04-24 00:50 | 39.84583 | -107.57777 | 15995 ft | 189 kts | 204° |
| 2026-04-24 00:50 | 39.83315 | -107.58272 | 15998 ft | 190 kts | 203° |
| 2026-04-24 00:50 | 39.82046 | -107.58766 | 16000 ft | 194 kts | 205° |
| 2026-04-24 00:50 | 39.80749 | -107.59262 | 16000 ft | 192 kts | 204° |
| 2026-04-24 00:51 | 39.79479 | -107.59754 | 16000 ft | 190 kts | 203° |
| 2026-04-24 00:51 | 39.78212 | -107.60247 | 16005 ft | 190 kts | 204° |
| 2026-04-24 00:51 | 39.76951 | -107.60734 | 16002 ft | 189 kts | 203° |
| 2026-04-24 00:51 | 39.75693 | -107.61212 | 16009 ft | 187 kts | 204° |
| 2026-04-24 00:52 | 39.74452 | -107.61694 | 16007 ft | 188 kts | 204° |
| 2026-04-24 00:52 | 39.73193 | -107.62185 | 16003 ft | 189 kts | 203° |
| 2026-04-24 00:52 | 39.71935 | -107.62669 | 16003 ft | 189 kts | 204° |
| 2026-04-24 00:52 | 39.70679 | -107.63152 | 16004 ft | 188 kts | 204° |
| 2026-04-24 00:53 | 39.69431 | -107.63626 | 15999 ft | 185 kts | 203° |
| 2026-04-24 00:53 | 39.68188 | -107.64108 | 16002 ft | 188 kts | 204° |
| 2026-04-24 00:53 | 39.66935 | -107.64598 | 16002 ft | 190 kts | 204° |
| 2026-04-24 00:53 | 39.65676 | -107.65085 | 16006 ft | 188 kts | 204° |
| 2026-04-24 00:54 | 39.64414 | -107.65568 | 15999 ft | 191 kts | 203° |
| 2026-04-24 00:54 | 39.63165 | -107.66047 | 15995 ft | 189 kts | 202° |
| 2026-04-24 00:54 | 39.61918 | -107.66524 | 15995 ft | 187 kts | 204° |
| 2026-04-24 00:54 | 39.60667 | -107.67002 | 15994 ft | 187 kts | 203° |
| 2026-04-24 00:55 | 39.59411 | -107.67491 | 15989 ft | 190 kts | 204° |
| 2026-04-24 00:55 | 39.58141 | -107.67985 | 15990 ft | 192 kts | 204° |
| 2026-04-24 00:55 | 39.56865 | -107.68471 | 15985 ft | 189 kts | 204° |
| 2026-04-24 00:55 | 39.55612 | -107.68940 | 15986 ft | 187 kts | 204° |
| 2026-04-24 00:56 | 39.54366 | -107.69430 | 15975 ft | 187 kts | 204° |
| 2026-04-24 00:56 | 39.53108 | -107.69918 | 15974 ft | 188 kts | 204° |
| 2026-04-24 00:56 | 39.51866 | -107.70387 | 15975 ft | 188 kts | 204° |
| 2026-04-24 00:56 | 39.50612 | -107.70879 | 15974 ft | 190 kts | 204° |
| 2026-04-24 00:57 | 39.49347 | -107.71352 | 15976 ft | 189 kts | 203° |
| 2026-04-24 00:57 | 39.48081 | -107.71837 | 15976 ft | 189 kts | 204° |
| 2026-04-24 00:57 | 39.45572 | -107.72810 | 15979 ft | 189 kts | 204° |
| 2026-04-24 00:58 | 39.44302 | -107.73293 | 15973 ft | 191 kts | 204° |
| 2026-04-24 00:58 | 39.43023 | -107.73774 | 15981 ft | 190 kts | 204° |
| 2026-04-24 00:58 | 39.41753 | -107.74259 | 15974 ft | 191 kts | 204° |
| 2026-04-24 00:58 | 39.40490 | -107.74729 | 15980 ft | 192 kts | 203° |
| 2026-04-24 00:59 | 39.39220 | -107.75213 | 15980 ft | 190 kts | 204° |
| 2026-04-24 00:59 | 39.37955 | -107.75710 | 15979 ft | 190 kts | 204° |
| 2026-04-24 00:59 | 39.36685 | -107.76196 | 15979 ft | 190 kts | 204° |
| 2026-04-24 00:59 | 39.35422 | -107.76676 | 15978 ft | 190 kts | 204° |
| 2026-04-24 01:00 | 39.34161 | -107.77159 | 15973 ft | 188 kts | 204° |
| 2026-04-24 01:00 | 39.32909 | -107.77639 | 15976 ft | 188 kts | 203° |
| 2026-04-24 01:00 | 39.31643 | -107.78118 | 15980 ft | 187 kts | 203° |
| 2026-04-24 01:00 | 39.30398 | -107.78582 | 15974 ft | 189 kts | 204° |
| 2026-04-24 01:01 | 39.29136 | -107.79059 | 15975 ft | 190 kts | 204° |
| 2026-04-24 01:01 | 39.27881 | -107.79549 | 15975 ft | 188 kts | 205° |
| 2026-04-24 01:01 | 39.26626 | -107.80029 | 15977 ft | 189 kts | 203° |
| 2026-04-24 01:01 | 39.25364 | -107.80508 | 15978 ft | 190 kts | 204° |
| 2026-04-24 01:02 | 39.24106 | -107.80993 | 15975 ft | 188 kts | 204° |
| 2026-04-24 01:02 | 39.22827 | -107.81477 | 15977 ft | 194 kts | 204° |
| 2026-04-24 01:02 | 39.21539 | -107.81961 | 15977 ft | 193 kts | 204° |
| 2026-04-24 01:02 | 39.20264 | -107.82439 | 15978 ft | 192 kts | 203° |
| 2026-04-24 01:03 | 39.18992 | -107.82920 | 15977 ft | 194 kts | 203° |
| 2026-04-24 01:03 | 39.17707 | -107.83418 | 15973 ft | 191 kts | 204° |
| 2026-04-24 01:03 | 39.16431 | -107.83901 | 15976 ft | 192 kts | 204° |
| 2026-04-24 01:03 | 39.15146 | -107.84389 | 15977 ft | 194 kts | 203° |
| 2026-04-24 01:04 | 39.13861 | -107.84882 | 15967 ft | 194 kts | 204° |
| 2026-04-24 01:04 | 39.12573 | -107.85372 | 15966 ft | 192 kts | 204° |
| 2026-04-24 01:04 | 39.11292 | -107.85855 | 15965 ft | 192 kts | 203° |
| 2026-04-24 01:04 | 39.10034 | -107.86322 | 15971 ft | 188 kts | 203° |
| 2026-04-24 01:05 | 39.08777 | -107.86799 | 15964 ft | 188 kts | 204° |
| 2026-04-24 01:05 | 39.07504 | -107.87284 | 15967 ft | 191 kts | 204° |
| 2026-04-24 01:05 | 39.06231 | -107.87765 | 15962 ft | 190 kts | 204° |
| 2026-04-24 01:05 | 39.04960 | -107.88251 | 15960 ft | 190 kts | 203° |
| 2026-04-24 01:06 | 39.03689 | -107.88725 | 15964 ft | 189 kts | 204° |
| 2026-04-24 01:06 | 39.02427 | -107.89199 | 15965 ft | 190 kts | 203° |
| 2026-04-24 01:06 | 39.01178 | -107.89668 | 15968 ft | 185 kts | 204° |
| 2026-04-24 01:06 | 38.99947 | -107.90140 | 15964 ft | 187 kts | 204° |
| 2026-04-24 01:07 | 38.98705 | -107.90617 | 15967 ft | 190 kts | 204° |
| 2026-04-24 01:07 | 38.97425 | -107.91100 | 15965 ft | 192 kts | 203° |
| 2026-04-24 01:07 | 38.96140 | -107.91587 | 15967 ft | 194 kts | 204° |
| 2026-04-24 01:07 | 38.94854 | -107.92067 | 15971 ft | 191 kts | 203° |
| 2026-04-24 01:08 | 38.93571 | -107.92540 | 15967 ft | 191 kts | 204° |
| 2026-04-24 01:08 | 38.92297 | -107.93025 | 15966 ft | 190 kts | 204° |
| 2026-04-24 01:08 | 38.91029 | -107.93500 | 15966 ft | 189 kts | 203° |
| 2026-04-24 01:08 | 38.89767 | -107.93977 | 15969 ft | 189 kts | 204° |
| 2026-04-24 01:09 | 38.88517 | -107.94450 | 15967 ft | 187 kts | 204° |
| 2026-04-24 01:09 | 38.87281 | -107.94914 | 15965 ft | 190 kts | 203° |
| 2026-04-24 01:09 | 38.86016 | -107.95387 | 15970 ft | 188 kts | 203° |
| 2026-04-24 01:09 | 38.84762 | -107.95859 | 15967 ft | 188 kts | 204° |
| 2026-04-24 01:10 | 38.83497 | -107.96336 | 15971 ft | 191 kts | 204° |
| 2026-04-24 01:10 | 38.82225 | -107.96817 | 15967 ft | 191 kts | 204° |
| 2026-04-24 01:10 | 38.80957 | -107.97284 | 15971 ft | 190 kts | 203° |
| 2026-04-24 01:10 | 38.79696 | -107.97748 | 15973 ft | 188 kts | 205° |
| 2026-04-24 01:11 | 38.78448 | -107.98235 | 15970 ft | 188 kts | 204° |
| 2026-04-24 01:11 | 38.77191 | -107.98711 | 15970 ft | 189 kts | 204° |
| 2026-04-24 01:11 | 38.75942 | -107.99174 | 15970 ft | 190 kts | 204° |
| 2026-04-24 01:11 | 38.74676 | -107.99645 | 15971 ft | 190 kts | 203° |
| 2026-04-24 01:12 | 38.73402 | -108.00129 | 15967 ft | 190 kts | 204° |
| 2026-04-24 01:12 | 38.72131 | -108.00612 | 15966 ft | 192 kts | 204° |
| 2026-04-24 01:12 | 38.70851 | -108.01090 | 15967 ft | 192 kts | 204° |
| 2026-04-24 01:12 | 38.69572 | -108.01561 | 15966 ft | 191 kts | 203° |
| 2026-04-24 01:13 | 38.68307 | -108.02024 | 15968 ft | 189 kts | 204° |
| 2026-04-24 01:13 | 38.67048 | -108.02507 | 15966 ft | 190 kts | 204° |
| 2026-04-24 01:13 | 38.65798 | -108.02969 | 15968 ft | 190 kts | 203° |
| 2026-04-24 01:13 | 38.64515 | -108.03447 | 15970 ft | 193 kts | 204° |
| 2026-04-24 01:14 | 38.63227 | -108.03930 | 15970 ft | 192 kts | 204° |
| 2026-04-24 01:14 | 38.61953 | -108.04407 | 15970 ft | 191 kts | 204° |
| 2026-04-24 01:14 | 38.60689 | -108.04882 | 15968 ft | 188 kts | 204° |
| 2026-04-24 01:14 | 38.59413 | -108.05360 | 15595 ft | 191 kts | 204° |
| 2026-04-24 01:15 | 38.58114 | -108.05840 | 15223 ft | 196 kts | 204° |
| 2026-04-24 01:15 | 38.56824 | -108.06332 | 14702 ft | 195 kts | 204° |
| 2026-04-24 01:15 | 38.55532 | -108.06820 | 14080 ft | 195 kts | 203° |
| 2026-04-24 01:15 | 38.54237 | -108.07298 | 13465 ft | 195 kts | 203° |
| 2026-04-24 01:16 | 38.52936 | -108.07770 | 13000 ft | 190 kts | 202° |
| 2026-04-24 01:16 | 38.51754 | -108.08203 | 12984 ft | 167 kts | 204° |
| 2026-04-24 01:16 | 38.50609 | -108.08631 | 12995 ft | 178 kts | 203° |
| 2026-04-24 01:16 | 38.49404 | -108.09082 | 12998 ft | 185 kts | 204° |
| 2026-04-24 01:17 | 38.48165 | -108.09541 | 13011 ft | 186 kts | 204° |
| 2026-04-24 01:17 | 38.46913 | -108.10014 | 13012 ft | 187 kts | 203° |
| 2026-04-24 01:17 | 38.45655 | -108.10483 | 13016 ft | 188 kts | 203° |
| 2026-04-24 01:17 | 38.44379 | -108.10950 | 13018 ft | 193 kts | 202° |
| 2026-04-24 01:18 | 38.43107 | -108.11428 | 13007 ft | 191 kts | 204° |
| 2026-04-24 01:18 | 38.41839 | -108.11897 | 13017 ft | 191 kts | 203° |
| 2026-04-24 01:18 | 38.40567 | -108.12370 | 13023 ft | 190 kts | 203° |
| 2026-04-24 01:18 | 38.39282 | -108.12844 | 13016 ft | 190 kts | 204° |
| 2026-04-24 01:19 | 38.38006 | -108.13317 | 13018 ft | 192 kts | 203° |
| 2026-04-24 01:19 | 38.36727 | -108.13793 | 13026 ft | 192 kts | 204° |
| 2026-04-24 01:19 | 38.35442 | -108.14266 | 13024 ft | 192 kts | 203° |
| 2026-04-24 01:19 | 38.34154 | -108.14745 | 13029 ft | 194 kts | 204° |
| 2026-04-24 01:20 | 38.32878 | -108.15223 | 13025 ft | 192 kts | 203° |
| 2026-04-24 01:20 | 38.31596 | -108.15691 | 13031 ft | 192 kts | 203° |
| 2026-04-24 01:20 | 38.30315 | -108.16163 | 13021 ft | 192 kts | 203° |
| 2026-04-24 01:20 | 38.29024 | -108.16634 | 13030 ft | 192 kts | 203° |
| 2026-04-24 01:21 | 38.27746 | -108.17115 | 13035 ft | 191 kts | 204° |
| 2026-04-24 01:21 | 38.26472 | -108.17595 | 13032 ft | 192 kts | 204° |
| 2026-04-24 01:21 | 38.25178 | -108.18068 | 13036 ft | 193 kts | 203° |
| 2026-04-24 01:21 | 38.23913 | -108.18522 | 13049 ft | 184 kts | 204° |
| 2026-04-24 01:22 | 38.22698 | -108.18973 | 13066 ft | 184 kts | 204° |
| 2026-04-24 01:22 | 38.21471 | -108.19430 | 13060 ft | 185 kts | 204° |
| 2026-04-24 01:22 | 38.20241 | -108.19887 | 13060 ft | 186 kts | 204° |
| 2026-04-24 01:22 | 38.19009 | -108.20347 | 13058 ft | 182 kts | 204° |
| 2026-04-24 01:23 | 38.17788 | -108.20793 | 13056 ft | 182 kts | 204° |
| 2026-04-24 01:23 | 38.16569 | -108.21241 | 13065 ft | 183 kts | 203° |
| 2026-04-24 01:23 | 38.15345 | -108.21685 | 13066 ft | 183 kts | 204° |
| 2026-04-24 01:23 | 38.14120 | -108.22143 | 12837 ft | 187 kts | 204° |
| 2026-04-24 01:24 | 38.12852 | -108.22631 | 12233 ft | 197 kts | 203° |
| 2026-04-24 01:24 | 38.11507 | -108.23134 | 11600 ft | 202 kts | 202° |
| 2026-04-24 01:24 | 38.10167 | -108.23617 | 10986 ft | 202 kts | 202° |
| 2026-04-24 01:24 | 38.08810 | -108.24107 | 10367 ft | 203 kts | 202° |
| 2026-04-24 01:25 | 38.07480 | -108.24589 | 10077 ft | 190 kts | 200° |
| 2026-04-24 01:25 | 38.06246 | -108.24873 | 10062 ft | 173 kts | 187° |
| 2026-04-24 01:25 | 38.05093 | -108.24677 | 10066 ft | 162 kts | 164° |
| 2026-04-24 01:25 | 38.04114 | -108.24084 | 10075 ft | 151 kts | 148° |
| 2026-04-24 01:26 | 38.03348 | -108.23202 | 10075 ft | 145 kts | 131° |
| 2026-04-24 01:26 | 38.02826 | -108.22122 | 10073 ft | 143 kts | 113° |
| 2026-04-24 01:26 | 38.02459 | -108.20948 | 10092 ft | 145 kts | 111° |
| 2026-04-24 01:26 | 38.02072 | -108.19757 | 10085 ft | 149 kts | 113° |
| 2026-04-24 01:27 | 38.01681 | -108.18557 | 10087 ft | 146 kts | 112° |
| 2026-04-24 01:27 | 38.01302 | -108.17371 | 10089 ft | 144 kts | 112° |
| 2026-04-24 01:27 | 38.00925 | -108.16191 | 10088 ft | 144 kts | 112° |
| 2026-04-24 01:27 | 38.00548 | -108.15028 | 10088 ft | 141 kts | 113° |
| 2026-04-24 01:28 | 38.00203 | -108.13878 | 10094 ft | 139 kts | 103° |
| 2026-04-24 01:28 | 37.99962 | -108.12697 | 10110 ft | 139 kts | 104° |
| 2026-04-24 01:28 | 37.99713 | -108.11510 | 10098 ft | 138 kts | 105° |
| 2026-04-24 01:28 | 37.99468 | -108.10343 | 10103 ft | 137 kts | 105° |
| 2026-04-24 01:29 | 37.99224 | -108.09180 | 10108 ft | 139 kts | 105° |
| 2026-04-24 01:29 | 37.98975 | -108.07989 | 10106 ft | 140 kts | 105° |
| 2026-04-24 01:29 | 37.98729 | -108.06806 | 10106 ft | 138 kts | 105° |
| 2026-04-24 01:29 | 37.98480 | -108.05627 | 10101 ft | 138 kts | 104° |
| 2026-04-24 01:30 | 37.98239 | -108.04455 | 10104 ft | 138 kts | 105° |
| 2026-04-24 01:30 | 37.97997 | -108.03296 | 10103 ft | 133 kts | 104° |
| 2026-04-24 01:30 | 37.97753 | -108.02156 | 10115 ft | 142 kts | 103° |
| 2026-04-24 01:30 | 37.97498 | -108.00926 | 10117 ft | 143 kts | 105° |
| 2026-04-24 01:31 | 37.97243 | -107.99722 | 10127 ft | 147 kts | 105° |
| 2026-04-24 01:31 | 37.96974 | -107.98430 | 10114 ft | 154 kts | 104° |
| 2026-04-24 01:31 | 37.96700 | -107.97093 | 10004 ft | 163 kts | 104° |
| 2026-04-24 01:31 | 37.96388 | -107.95637 | 9754 ft | 178 kts | 105° |
| 2026-04-24 01:32 | 37.96057 | -107.94098 | 9467 ft | 176 kts | 104° |
| 2026-04-24 01:32 | 37.95778 | -107.92777 | 9271 ft | 143 kts | 103° |
| 2026-04-24 01:32 | 37.95553 | -107.91693 | 9083 ft | 102 kts | 103° |
| 2026-04-24 01:32 | 37.95455 | -107.90984 | 9237 ft | 77 kts | 80° |
| 2026-04-24 01:33 | 37.95521 | -107.90121 | 9221 ft | 124 kts | 81° |
| 2026-04-24 01:33 | 37.95648 | -107.89029 | 9462 ft | 135 kts | 102° |
| 2026-04-24 01:33 | 37.94936 | -107.88894 | 9243 ft | 142 kts | 255° |
| 2026-04-24 01:33 | 37.95234 | -107.89923 | 9119 ft | 114 kts | 279° |
| 2026-04-24 01:34 | 37.95367 | -107.90764 | 9031 ft | 79 kts | 283° |
| 2026-04-24 01:34 | 37.95394 | -107.90925 | 9025 ft | 0 kts | 280° |
| 2026-04-24 01:35 | 37.95708 | -107.91873 | 9143 ft | 163 kts | 305° |
| 2026-04-24 01:35 | 37.96344 | -107.92904 | 9363 ft | 137 kts | 301° |
| 2026-04-24 01:35 | 37.95966 | -107.93709 | 9395 ft | 141 kts | 168° |
| 2026-04-24 01:35 | 37.95638 | -107.92660 | 9173 ft | 155 kts | 82° |
| 2026-04-24 01:36 | 37.95493 | -107.91442 | 9032 ft | 121 kts | 101° |
| 2026-04-24 01:36 | 37.95408 | -107.90955 | 9029 ft | 0 kts | 105° |